createdAt,value
2019-02-22T00:02:13.072Z,16.07
2019-02-22T00:04:40.386Z,20.80
2019-02-22T00:07:07.705Z,17.67
2019-02-22T00:09:35.681Z,21.10
2019-02-22T00:12:03.123Z,20.25
2019-02-22T00:14:30.491Z,19.92
2019-02-22T00:16:57.813Z,16.60
2019-02-22T00:19:25.146Z,16.67
2019-02-22T00:21:52.571Z,15.30
2019-02-22T00:24:20.561Z,18.85
2019-02-22T00:26:47.956Z,16.15
2019-02-22T00:29:15.494Z,16.90
2019-02-22T00:31:42.861Z,17.95
2019-02-22T00:34:10.318Z,16.57
2019-02-22T00:36:37.791Z,18.00
2019-02-22T00:41:51.386Z,15.98
2019-02-22T00:44:19.027Z,14.98
2019-02-22T00:46:46.652Z,16.93
2019-02-22T00:49:14.046Z,18.27
2019-02-22T00:51:41.465Z,17.90
2019-02-22T00:54:08.885Z,17.75
2019-02-22T00:56:36.182Z,17.32
2019-02-22T00:59:03.605Z,21.33
2019-02-22T01:01:31.116Z,23.80
2019-02-22T01:03:58.726Z,28.65
2019-02-22T01:06:26.193Z,22.32
2019-02-22T01:08:53.544Z,24.45
2019-02-22T01:11:20.861Z,24.20
2019-02-22T01:13:48.186Z,21.37
2019-02-22T01:16:15.850Z,22.80
2019-02-22T01:18:43.270Z,19.25
2019-02-22T01:21:10.668Z,22.20
2019-02-22T01:23:38.382Z,22.25
2019-02-22T01:26:05.776Z,20.82
2019-02-22T01:28:33.197Z,24.37
2019-02-22T01:31:01.155Z,24.07
2019-02-22T01:37:52.815Z,24.45
2019-02-22T01:40:20.453Z,30.32
2019-02-22T01:42:47.896Z,27.80
2019-02-22T01:45:15.325Z,28.00
2019-02-22T01:47:42.687Z,31.20
2019-02-22T01:50:18.273Z,29.00
2019-02-22T01:52:45.800Z,24.52
2019-02-22T01:55:13.485Z,25.88
2019-02-22T01:57:41.084Z,28.02
2019-02-22T02:00:09.803Z,28.65
2019-02-22T02:02:37.121Z,26.73
2019-02-22T02:05:04.733Z,30.35
2019-02-22T02:07:32.071Z,24.82
2019-02-22T02:09:59.790Z,23.57
2019-02-22T02:12:27.125Z,24.47
2019-02-22T02:14:54.455Z,28.47
2019-02-22T02:17:22.050Z,29.90
2019-02-22T02:19:49.399Z,26.80
2019-02-22T02:22:16.797Z,26.65
2019-02-22T02:24:44.428Z,31.12
2019-02-22T02:27:11.833Z,29.40
2019-02-22T02:29:39.320Z,27.67
2019-02-22T02:32:06.687Z,21.25
2019-02-22T02:34:34.153Z,27.60
2019-02-22T02:37:01.555Z,25.82
2019-02-22T02:39:28.999Z,27.70
2019-02-22T02:41:56.736Z,31.73
2019-02-22T02:44:24.281Z,31.55
2019-02-22T02:46:51.701Z,31.25
2019-02-22T02:49:19.417Z,34.18
2019-02-22T02:51:46.843Z,37.23
2019-02-22T02:54:14.186Z,30.62
2019-02-22T02:56:41.492Z,33.02
2019-02-22T02:59:08.856Z,32.15
2019-02-22T03:01:36.273Z,31.50
2019-02-22T03:04:03.584Z,33.65
2019-02-22T03:06:35.514Z,32.00
2019-02-22T03:09:03.406Z,29.27
2019-02-22T03:11:30.758Z,29.92
2019-02-22T03:13:58.235Z,29.42
2019-02-22T03:16:25.749Z,34.43
2019-02-22T03:18:53.342Z,28.38
2019-02-22T03:21:20.718Z,29.20
2019-02-22T03:23:48.136Z,31.10
2019-02-22T03:26:15.816Z,30.55
2019-02-22T03:28:43.548Z,30.20
2019-02-22T03:31:10.915Z,36.03
2019-02-22T03:33:38.338Z,31.97
2019-02-22T03:36:05.795Z,32.88
2019-02-22T03:38:33.519Z,34.33
2019-02-22T03:41:00.915Z,31.17
2019-02-22T03:43:28.259Z,31.25
2019-02-22T03:45:55.879Z,28.92
2019-02-22T03:48:23.322Z,30.30
2019-02-22T03:50:50.716Z,27.85
2019-02-22T03:53:37.699Z,24.50
2019-02-22T03:56:05.127Z,27.77
2019-02-22T03:58:32.672Z,26.68
2019-02-22T04:01:00.123Z,30.37
2019-02-22T04:03:27.623Z,28.38
2019-02-22T04:05:55.317Z,28.80
2019-02-22T04:08:23.054Z,29.57
2019-02-22T04:10:50.780Z,29.15
2019-02-22T04:13:18.168Z,28.55
2019-02-22T04:15:45.506Z,27.90
2019-02-22T04:18:13.507Z,24.75
2019-02-22T04:20:40.925Z,29.00
2019-02-22T04:23:08.647Z,24.80
2019-02-22T04:25:36.087Z,23.12
2019-02-22T04:28:03.481Z,26.35
2019-02-22T04:30:30.934Z,28.38
2019-02-22T04:32:58.221Z,26.50
2019-02-22T04:35:25.597Z,28.77
2019-02-22T04:37:52.911Z,23.55
2019-02-22T04:40:20.361Z,27.80
2019-02-22T04:42:47.777Z,27.93
2019-02-22T04:45:15.239Z,30.52
2019-02-22T04:47:43.006Z,25.48
2019-02-22T04:50:10.922Z,28.57
2019-02-22T04:52:38.279Z,32.05
2019-02-22T04:55:06.039Z,26.62
2019-02-22T04:57:33.463Z,28.23
2019-02-22T05:00:00.878Z,28.42
2019-02-22T05:02:28.289Z,29.05
2019-02-22T05:04:55.637Z,21.85
2019-02-22T05:07:23.372Z,25.97
2019-02-22T05:09:50.847Z,26.35
2019-02-22T05:12:18.251Z,25.02
2019-02-22T05:14:46.065Z,23.75
2019-02-22T05:17:13.496Z,28.87
2019-02-22T05:19:40.911Z,26.15
2019-02-22T05:22:08.376Z,32.85
2019-02-22T05:24:36.279Z,30.62
2019-02-22T05:27:03.758Z,23.50
2019-02-22T05:29:31.090Z,24.30
2019-02-22T05:31:58.658Z,25.25
2019-02-22T05:34:26.032Z,24.15
2019-02-22T05:36:53.791Z,28.98
2019-02-22T05:39:21.490Z,28.92
2019-02-22T05:41:48.960Z,23.52
2019-02-22T05:44:16.731Z,26.00
2019-02-22T05:46:44.520Z,21.20
2019-02-22T05:49:11.966Z,23.85
2019-02-22T05:51:39.690Z,24.90
2019-02-22T05:54:07.133Z,26.17
2019-02-22T05:56:34.820Z,31.57
2019-02-22T05:59:02.282Z,24.85
2019-02-22T06:01:29.877Z,29.20
2019-02-22T06:03:57.502Z,25.00
2019-02-22T06:06:25.184Z,27.62
2019-02-22T06:08:52.543Z,33.92
2019-02-22T06:11:20.295Z,36.55
2019-02-22T06:13:48.032Z,36.60
2019-02-22T06:16:15.527Z,31.40
2019-02-22T06:18:43.120Z,34.73
2019-02-22T06:21:10.557Z,34.85
2019-02-22T06:23:38.018Z,35.50
2019-02-22T06:26:05.476Z,39.08
2019-02-22T06:28:33.273Z,33.23
2019-02-22T06:31:00.698Z,33.35
2019-02-22T06:33:28.511Z,33.67
2019-02-22T06:35:55.986Z,35.58
2019-02-22T06:38:23.424Z,33.60
2019-02-22T06:40:50.802Z,33.38
2019-02-22T06:43:18.212Z,34.05
2019-02-22T06:45:46.529Z,29.02
2019-02-22T06:48:13.979Z,33.83
2019-02-22T06:50:41.696Z,33.23
2019-02-22T06:53:09.489Z,31.23
2019-02-22T06:55:37.160Z,35.05
2019-02-22T06:58:04.939Z,34.92
2019-02-22T07:00:32.384Z,32.83
2019-02-22T07:02:59.769Z,32.48
2019-02-22T07:05:27.472Z,53.95
2019-02-22T07:07:56.816Z,40.98
2019-02-22T07:10:24.055Z,33.88
2019-02-22T07:13:01.378Z,34.00
2019-02-22T07:15:28.982Z,31.68
2019-02-22T07:17:56.600Z,31.15
2019-02-22T07:20:24.537Z,32.13
2019-02-22T07:22:52.179Z,33.75
2019-02-22T07:25:19.484Z,38.60
2019-02-22T07:27:46.831Z,46.75
2019-02-22T07:30:16.795Z,41.15
2019-02-22T07:32:44.221Z,33.18
2019-02-22T07:35:14.114Z,29.63
2019-02-22T07:37:41.261Z,28.95
2019-02-22T07:40:08.582Z,26.30
2019-02-22T07:42:35.913Z,29.50
2019-02-22T07:45:03.552Z,28.12
2019-02-22T07:47:30.911Z,27.70
2019-02-22T07:49:58.345Z,32.67
2019-02-22T07:52:25.806Z,31.45
2019-02-22T07:54:53.556Z,29.50
2019-02-22T07:57:21.346Z,28.95
2019-02-22T07:59:48.758Z,28.95
2019-02-22T08:02:16.114Z,29.65
2019-02-22T08:04:43.563Z,26.35
2019-02-22T08:07:11.358Z,24.00
2019-02-22T08:09:38.666Z,24.95
2019-02-22T08:12:06.123Z,28.85
2019-02-22T08:14:33.579Z,26.23
2019-02-22T08:17:01.427Z,23.07
2019-02-22T08:19:28.844Z,22.95
2019-02-22T08:21:56.427Z,20.72
2019-02-22T08:24:25.868Z,19.77
2019-02-22T08:26:53.517Z,19.77
2019-02-22T08:29:20.991Z,22.48
2019-02-22T08:31:48.387Z,22.00
2019-02-22T08:34:15.774Z,25.20
2019-02-22T08:36:44.047Z,20.85
2019-02-22T08:39:12.155Z,20.43
2019-02-22T08:41:39.522Z,23.62
2019-02-22T08:44:06.845Z,17.50
2019-02-22T08:46:34.354Z,17.35
2019-02-22T08:49:02.165Z,17.02
2019-02-22T08:51:29.875Z,16.62
2019-02-22T08:53:57.206Z,15.75
2019-02-22T08:56:24.863Z,14.85
2019-02-22T08:58:52.361Z,14.38
2019-02-22T09:01:19.746Z,16.52
2019-02-22T09:03:50.558Z,16.17
2019-02-22T09:06:16.624Z,16.02
2019-02-22T09:08:44.746Z,16.27
2019-02-22T09:11:12.037Z,15.50
2019-02-22T09:13:43.483Z,12.70
2019-02-22T09:16:08.594Z,15.85
2019-02-22T09:18:36.253Z,14.98
2019-02-22T09:21:03.928Z,15.85
2019-02-22T09:23:31.626Z,15.15
2019-02-22T09:25:59.063Z,15.80
2019-02-22T09:28:26.557Z,16.35
2019-02-22T09:30:54.177Z,17.20
2019-02-22T09:33:21.573Z,17.40
2019-02-22T09:35:49.034Z,15.38
2019-02-22T09:38:16.707Z,17.12
2019-02-22T09:40:44.464Z,15.53
2019-02-22T09:43:12.293Z,16.75
2019-02-22T09:45:39.638Z,13.25
2019-02-22T09:48:06.954Z,12.58
2019-02-22T09:50:34.893Z,16.32
2019-02-22T09:53:02.526Z,16.40
2019-02-22T09:55:29.817Z,12.88
2019-02-22T09:57:57.460Z,13.32
2019-02-22T10:00:25.017Z,12.03
2019-02-22T10:02:52.367Z,11.90
2019-02-22T10:05:19.669Z,15.80
2019-02-22T10:07:47.062Z,13.43
2019-02-22T10:10:14.394Z,15.00
2019-02-22T10:12:41.815Z,11.20
2019-02-22T10:15:09.466Z,13.32
2019-02-22T10:17:36.769Z,12.50
2019-02-22T10:20:05.531Z,13.20
2019-02-22T10:22:32.964Z,13.58
2019-02-22T10:25:00.384Z,11.40
2019-02-22T10:27:27.845Z,12.37
2019-02-22T10:29:55.818Z,12.07
2019-02-22T10:32:23.146Z,10.05
2019-02-22T10:34:50.436Z,12.28
2019-02-22T10:37:18.157Z,12.40
2019-02-22T10:39:45.508Z,11.80
2019-02-22T10:42:12.829Z,11.43
2019-02-22T10:44:40.143Z,11.53
2019-02-22T10:47:07.620Z,11.57
2019-02-22T10:49:35.670Z,12.43
2019-02-22T10:52:03.333Z,9.55
2019-02-22T10:54:30.649Z,8.03
2019-02-22T10:56:57.999Z,6.65
2019-02-22T10:59:25.341Z,7.30
2019-02-22T11:01:52.768Z,7.12
2019-02-22T11:04:20.396Z,5.70
2019-02-22T11:06:48.041Z,7.33
2019-02-22T11:09:16.288Z,6.35
2019-02-22T11:11:43.794Z,6.10
2019-02-22T11:14:11.126Z,5.58
2019-02-22T11:16:38.889Z,6.65
2019-02-22T11:19:06.300Z,6.28
2019-02-22T11:21:33.719Z,6.92
2019-02-22T11:24:01.242Z,6.87
2019-02-22T11:26:28.573Z,7.28
2019-02-22T11:28:55.984Z,6.20
2019-02-22T11:31:23.733Z,5.70
2019-02-22T11:33:51.146Z,6.87
2019-02-22T11:36:18.499Z,5.65
2019-02-22T11:38:45.904Z,5.30
2019-02-22T11:41:13.661Z,7.33
2019-02-22T11:43:41.339Z,6.47
2019-02-22T11:46:08.783Z,4.87
2019-02-22T11:48:36.090Z,6.55
2019-02-22T11:51:03.880Z,5.08
2019-02-22T11:53:31.237Z,7.15
2019-02-22T11:55:58.652Z,5.92
2019-02-22T11:58:25.978Z,6.05
2019-02-22T12:00:53.387Z,5.25
2019-02-22T12:03:24.671Z,3.45
2019-02-22T12:05:50.190Z,3.62
2019-02-22T12:08:17.524Z,4.20
2019-02-22T12:10:44.798Z,4.87
2019-02-22T12:13:12.501Z,4.08
2019-02-22T12:15:40.173Z,4.30
2019-02-22T12:18:07.981Z,3.92
2019-02-22T12:20:35.554Z,3.45
2019-02-22T12:23:03.578Z,2.85
2019-02-22T12:25:30.957Z,2.92
2019-02-22T12:27:58.297Z,3.05
2019-02-22T12:30:25.882Z,3.62
2019-02-22T12:32:56.329Z,3.70
2019-02-22T12:35:23.970Z,1.87
2019-02-22T12:37:51.581Z,2.05
2019-02-22T12:40:18.907Z,2.52
2019-02-22T12:42:46.654Z,2.92
2019-02-22T12:45:14.044Z,2.80
2019-02-22T12:47:42.221Z,2.83
2019-02-22T12:50:09.760Z,2.92
2019-02-22T12:52:37.189Z,2.20
2019-02-22T12:55:05.670Z,2.00
2019-02-22T12:57:33.464Z,2.05
2019-02-22T13:00:00.790Z,3.98
2019-02-22T13:02:28.984Z,2.95
2019-02-22T13:04:56.377Z,2.02
2019-02-22T13:07:23.685Z,3.17
2019-02-22T13:09:51.042Z,2.33
2019-02-22T13:12:18.703Z,3.45
2019-02-22T13:14:46.373Z,2.05
2019-02-22T13:17:13.864Z,2.87
2019-02-22T13:19:41.298Z,2.60
2019-02-22T13:22:08.883Z,2.85
2019-02-22T13:24:36.291Z,3.65
2019-02-22T13:27:03.742Z,2.42
2019-02-22T13:29:31.406Z,1.60
2019-02-22T13:31:58.874Z,3.10
2019-02-22T13:34:26.311Z,1.60
2019-02-22T13:36:53.722Z,3.55
2019-02-22T13:39:21.823Z,2.50
2019-02-22T13:41:49.145Z,2.12
2019-02-22T13:44:16.638Z,1.50
2019-02-22T13:46:44.636Z,1.35
2019-02-22T13:49:12.483Z,2.55
2019-02-22T13:51:40.180Z,2.52
2019-02-22T13:54:07.903Z,1.70
2019-02-22T13:56:35.618Z,2.17
2019-02-22T13:59:03.085Z,2.58
2019-02-22T14:01:30.768Z,2.50
2019-02-22T14:03:58.130Z,3.02
2019-02-22T14:06:25.779Z,3.52
2019-02-22T14:08:53.411Z,2.17
2019-02-22T14:11:21.173Z,2.58
2019-02-22T14:13:48.580Z,2.37
2019-02-22T14:16:16.322Z,2.80
2019-02-22T14:18:43.851Z,1.50
2019-02-22T14:21:11.199Z,3.20
2019-02-22T14:23:38.586Z,3.33
2019-02-22T14:26:05.996Z,3.47
2019-02-22T14:28:34.102Z,3.70
2019-02-22T14:31:01.954Z,4.35
2019-02-22T14:33:29.260Z,4.33
2019-02-22T14:35:57.145Z,2.00
2019-02-22T14:38:25.367Z,2.80
2019-02-22T14:40:52.747Z,2.22
2019-02-22T14:43:20.333Z,3.92
2019-02-22T14:45:50.874Z,2.62
2019-02-22T14:48:17.642Z,2.33
2019-02-22T14:50:44.966Z,2.80
2019-02-22T14:53:19.603Z,3.10
2019-02-22T14:55:41.907Z,4.28
2019-02-22T14:58:09.238Z,2.83
2019-02-22T15:00:36.590Z,3.45
2019-02-22T15:03:04.019Z,4.75
2019-02-22T15:05:32.089Z,4.08
2019-02-22T15:07:59.413Z,3.75
2019-02-22T15:10:26.771Z,3.95
2019-02-22T15:12:54.145Z,5.72
2019-02-22T15:15:24.739Z,4.92
2019-02-22T15:18:00.171Z,3.52
2019-02-22T15:20:27.636Z,5.85
2019-02-22T15:22:55.058Z,4.10
2019-02-22T15:25:22.485Z,5.45
2019-02-22T15:27:49.821Z,6.00
2019-02-22T15:30:17.237Z,5.42
2019-02-22T15:32:45.254Z,7.60
2019-02-22T15:35:12.953Z,4.10
2019-02-22T15:37:43.057Z,4.45
2019-02-22T15:40:10.083Z,4.65
2019-02-22T15:42:40.455Z,4.53
2019-02-22T15:45:08.458Z,4.75
2019-02-22T15:47:36.047Z,6.35
2019-02-22T15:50:04.378Z,5.45
2019-02-22T15:52:31.807Z,6.08
2019-02-22T15:54:59.259Z,5.20
2019-02-22T15:57:26.663Z,5.15
2019-02-22T15:59:54.342Z,4.05
2019-02-22T16:02:22.046Z,5.83
2019-02-22T16:04:53.712Z,6.37
2019-02-22T16:07:21.182Z,4.58
2019-02-22T16:09:48.621Z,4.90
2019-02-22T16:12:16.319Z,6.58
2019-02-22T16:14:43.782Z,5.87
2019-02-22T16:17:11.574Z,8.70
2019-02-22T16:19:38.997Z,8.38
2019-02-22T16:22:06.598Z,6.28
2019-02-22T16:24:33.957Z,7.62
2019-02-22T16:27:01.925Z,9.60
2019-02-22T16:29:31.046Z,6.60
2019-02-22T16:31:58.409Z,7.60
2019-02-22T16:34:26.780Z,4.95
2019-02-22T16:36:54.860Z,5.75
2019-02-22T16:39:22.298Z,5.12
2019-02-22T16:41:49.819Z,6.08
2019-02-22T16:44:17.857Z,5.97
2019-02-22T16:46:46.143Z,5.65
2019-02-22T16:49:14.199Z,5.55
2019-02-22T16:51:41.618Z,8.48
2019-02-22T16:54:09.473Z,6.92
2019-02-22T16:56:37.279Z,7.35
2019-02-22T16:59:04.608Z,8.45
2019-02-22T17:01:31.951Z,8.13
2019-02-22T17:03:59.716Z,9.75
2019-02-22T17:06:27.333Z,9.38
2019-02-22T17:08:54.818Z,8.75
2019-02-22T17:11:23.209Z,9.75
2019-02-22T17:13:50.999Z,13.50
2019-02-22T17:16:18.732Z,7.70
2019-02-22T17:18:46.881Z,8.23
2019-02-22T17:21:14.158Z,8.50
2019-02-22T17:23:42.038Z,6.67
2019-02-22T17:26:13.081Z,6.87
2019-02-22T17:28:41.518Z,8.95
2019-02-22T17:31:08.847Z,7.87
2019-02-22T17:33:36.655Z,9.95
2019-02-22T17:36:04.063Z,15.78
2019-02-22T17:38:31.541Z,14.70
2019-02-22T17:40:59.001Z,36.17
2019-02-22T17:43:26.428Z,20.02
2019-02-22T17:45:53.919Z,15.75
2019-02-22T17:48:21.342Z,13.72
2019-02-22T17:50:48.911Z,11.97
2019-02-22T17:53:16.230Z,9.25
2019-02-22T17:55:43.672Z,10.38
2019-02-22T17:58:11.183Z,13.28
2019-02-22T18:00:39.222Z,12.58
2019-02-22T18:03:06.664Z,11.18
2019-02-22T18:05:34.009Z,8.88
2019-02-22T18:08:02.733Z,9.45
2019-02-22T18:10:30.177Z,8.10
2019-02-22T18:12:58.139Z,7.45
2019-02-22T18:15:25.645Z,8.08
2019-02-22T18:17:53.417Z,7.30
2019-02-22T18:20:20.865Z,6.87
2019-02-22T18:22:48.501Z,6.65
2019-02-22T18:25:15.961Z,6.90
2019-02-22T18:27:44.001Z,6.62
2019-02-22T18:30:12.013Z,8.58
2019-02-22T18:32:39.514Z,6.30
2019-02-22T18:35:07.489Z,7.53
2019-02-22T18:37:34.830Z,9.00
2019-02-22T18:40:02.313Z,7.83
2019-02-22T18:42:29.641Z,6.60
2019-02-22T18:44:57.119Z,6.62
2019-02-22T18:47:24.502Z,6.25
2019-02-22T18:49:52.115Z,5.95
2019-02-22T18:52:19.558Z,7.87
2019-02-22T18:54:47.140Z,5.92
2019-02-22T18:57:14.714Z,5.67
2019-02-22T18:59:42.123Z,8.05
2019-02-22T19:02:09.854Z,6.47
2019-02-22T19:04:37.893Z,6.37
2019-02-22T19:07:05.221Z,8.13
2019-02-22T19:09:33.041Z,7.53
2019-02-22T19:12:00.401Z,11.75
2019-02-22T19:14:27.785Z,7.95
2019-02-22T19:16:55.807Z,6.42
2019-02-22T19:19:23.622Z,5.20
2019-02-22T19:21:51.062Z,8.13
2019-02-22T19:24:18.748Z,6.00
2019-02-22T19:26:46.546Z,9.65
2019-02-22T19:29:14.011Z,9.70
2019-02-22T19:31:41.464Z,7.37
2019-02-22T19:34:08.795Z,6.00
2019-02-22T19:36:36.200Z,6.55
2019-02-22T19:39:05.055Z,6.50
2019-02-22T19:41:40.234Z,5.70
2019-02-22T19:44:11.590Z,8.65
2019-02-22T19:46:44.003Z,5.70
2019-02-22T19:49:17.510Z,7.87
2019-02-22T19:51:48.184Z,9.05
2019-02-22T19:54:18.879Z,8.48
2019-02-22T19:56:57.291Z,7.00
2019-02-22T19:59:41.458Z,4.60
2019-02-22T20:02:23.117Z,6.33
2019-02-22T20:05:03.403Z,7.50
2019-02-22T20:07:30.895Z,6.10
2019-02-22T20:09:58.654Z,6.10
2019-02-22T20:12:26.075Z,5.37
2019-02-22T20:14:54.019Z,11.93
2019-02-22T20:17:21.542Z,5.40
2019-02-22T20:19:49.625Z,5.50
2019-02-22T20:22:17.096Z,6.58
2019-02-22T20:24:44.518Z,8.73
2019-02-22T20:27:12.181Z,10.38
2019-02-22T20:29:39.504Z,6.42
2019-02-22T20:32:09.046Z,7.90
2019-02-22T20:34:36.380Z,7.65
2019-02-22T20:37:03.859Z,6.95
2019-02-22T20:39:31.625Z,8.83
2019-02-22T20:41:59.090Z,6.75
2019-02-22T20:44:26.833Z,8.50
2019-02-22T20:46:54.246Z,8.38
2019-02-22T20:49:21.548Z,6.67
2019-02-22T20:51:49.755Z,8.98
2019-02-22T20:54:17.387Z,7.90
2019-02-22T20:56:44.843Z,7.83
2019-02-22T20:59:12.157Z,7.15
2019-02-22T21:01:40.044Z,6.53
2019-02-22T21:04:07.881Z,8.00
2019-02-22T21:06:35.367Z,7.72
2019-02-22T21:09:04.034Z,6.92
2019-02-22T21:11:31.863Z,7.90
2019-02-22T21:13:59.306Z,5.72
2019-02-22T21:16:26.896Z,9.73
2019-02-22T21:18:54.316Z,7.55
2019-02-22T21:21:22.285Z,7.95
2019-02-22T21:23:52.027Z,9.05
2019-02-22T21:26:19.038Z,7.92
2019-02-22T21:28:46.831Z,7.80
2019-02-22T21:31:14.197Z,6.80
2019-02-22T21:33:41.638Z,8.13
2019-02-22T21:36:09.442Z,8.88
2019-02-22T21:38:36.834Z,9.05
2019-02-22T21:41:04.945Z,7.37
2019-02-22T21:43:33.528Z,6.95
2019-02-22T21:46:01.190Z,6.62
2019-02-22T21:48:28.522Z,7.45
2019-02-22T21:50:56.286Z,7.45
2019-02-22T21:53:25.185Z,9.43
2019-02-22T21:55:53.098Z,10.28
2019-02-22T21:58:20.556Z,8.80
2019-02-22T22:00:48.338Z,10.43
2019-02-22T22:03:15.679Z,16.07
2019-02-22T22:05:43.033Z,15.90
2019-02-22T22:08:10.365Z,14.43
2019-02-22T22:10:37.726Z,13.62
2019-02-22T22:13:05.091Z,11.45
2019-02-22T22:15:32.538Z,9.03
2019-02-22T22:17:59.993Z,7.92
2019-02-22T22:20:27.420Z,7.72
2019-02-22T22:22:54.882Z,8.43
2019-02-22T22:25:23.129Z,7.90
2019-02-22T22:27:50.466Z,10.10
2019-02-22T22:30:17.816Z,8.80
2019-02-22T22:32:45.300Z,7.72
2019-02-22T22:35:12.762Z,8.25
2019-02-22T22:37:40.217Z,8.73
2019-02-22T22:40:08.687Z,9.70
2019-02-22T22:42:36.034Z,10.93
2019-02-22T22:45:05.917Z,7.90
2019-02-22T22:47:32.686Z,10.30
2019-02-22T22:50:00.574Z,6.50
2019-02-22T22:52:27.978Z,12.00
2019-02-22T22:54:55.345Z,11.63
2019-02-22T22:57:23.034Z,11.08
2019-02-22T22:59:50.489Z,10.38
2019-02-22T23:02:17.925Z,7.47
2019-02-22T23:04:45.227Z,8.48
2019-02-22T23:07:12.745Z,8.20
2019-02-22T23:09:40.133Z,8.98
2019-02-22T23:12:08.778Z,12.10
2019-02-22T23:14:36.214Z,11.35
2019-02-22T23:17:03.561Z,9.28
2019-02-22T23:19:30.921Z,10.95
2019-02-22T23:21:58.239Z,15.88
2019-02-22T23:24:25.587Z,13.68
2019-02-22T23:26:52.994Z,16.45
2019-02-22T23:29:20.603Z,11.38
2019-02-22T23:31:48.033Z,6.12
2019-02-22T23:34:15.525Z,10.05
2019-02-22T23:36:42.997Z,8.30
2019-02-22T23:39:10.905Z,9.25
2019-02-22T23:41:38.275Z,8.28
2019-02-22T23:44:05.947Z,6.95
2019-02-22T23:46:33.356Z,10.50
2019-02-22T23:49:00.943Z,11.43
2019-02-22T23:51:28.561Z,11.05
2019-02-22T23:53:56.258Z,12.58
2019-02-22T23:56:23.618Z,7.92
2019-02-22T23:58:50.939Z,10.18
